Time;durP1;ratioP1;P1;durP2;ratioP2;P2;SDS_P1;SDS_P2;PMS_P1;PMS_P2;Temp;Humidity;BMP_temperature;BMP_pressure;BME280_temperature;BME280_humidity;BME280_pressure;Samples;Min_cycle;Max_cycle;Signal;HPM_P1;HPM_P2
2022/01/15 00:01:50;;;;;;;26.10;3.67;;;;;;;;;;5043159;28;20045;-68
2022/01/15 00:04:17;;;;;;;13.43;2.92;;;;;;;;;;5049205;28;20071;-68
2022/01/15 00:06:48;;;;;;;25.75;3.67;;;;;;;;;;5045103;28;20071;-68
2022/01/15 00:09:21;;;;;;;19.45;2.90;;;;;;;;;;5048008;28;20072;-68
2022/01/15 00:11:48;;;;;;;16.67;2.75;;;;;;;;;;5048571;28;20128;-68
2022/01/15 00:14:23;;;;;;;18.48;3.10;;;;;;;;;;5047863;28;20134;-68
2022/01/15 00:17:04;;;;;;;24.65;2.88;;;;;;;;;;5043467;28;20108;-68
2022/01/15 00:19:41;;;;;;;14.07;2.97;;;;;;;;;;5036504;28;20480;-68
2022/01/15 00:22:17;;;;;;;30.05;3.47;;;;;;;;;;5043646;28;20055;-68
2022/01/15 00:24:44;;;;;;;13.70;2.95;;;;;;;;;;5045448;28;20110;-68
2022/01/15 00:27:10;;;;;;;19.55;2.63;;;;;;;;;;5045453;28;20478;-68
2022/01/15 00:29:37;;;;;;;25.77;3.78;;;;;;;;;;5046245;28;20145;-67
2022/01/15 00:32:04;;;;;;;15.47;2.50;;;;;;;;;;5047470;28;20140;-68
2022/01/15 00:34:31;;;;;;;27.65;3.28;;;;;;;;;;5040863;28;20386;-68
2022/01/15 00:36:58;;;;;;;15.07;2.05;;;;;;;;;;5040174;28;20128;-68
2022/01/15 00:39:25;;;;;;;23.02;3.17;;;;;;;;;;5048085;28;20081;-68
2022/01/15 00:41:51;;;;;;;27.48;4.05;;;;;;;;;;5046431;28;20554;-68
2022/01/15 00:44:18;;;;;;;10.95;2.15;;;;;;;;;;5049151;28;20144;-68
2022/01/15 00:46:45;;;;;;;26.65;3.20;;;;;;;;;;5056586;28;20080;-68
2022/01/15 00:49:11;;;;;;;15.45;2.60;;;;;;;;;;5060727;28;20106;-67
2022/01/15 00:51:39;;;;;;;17.63;3.00;;;;;;;;;;5055805;28;20127;-68
2022/01/15 00:54:05;;;;;;;24.63;3.45;;;;;;;;;;5056817;28;20144;-68
2022/01/15 00:56:31;;;;;;;28.37;3.17;;;;;;;;;;5061644;28;20215;-68
2022/01/15 00:59:05;;;;;;;23.33;3.75;;;;;;;;;;5058577;28;20572;-68
2022/01/15 01:01:32;;;;;;;20.15;3.10;;;;;;;;;;5060151;28;20052;-68
2022/01/15 01:03:58;;;;;;;22.30;3.65;;;;;;;;;;5058591;28;20078;-68
2022/01/15 01:06:25;;;;;;;15.23;2.30;;;;;;;;;;5057393;28;20135;-68
2022/01/15 01:08:52;;;;;;;12.63;2.08;;;;;;;;;;5043233;28;20059;-68
2022/01/15 01:11:29;;;;;;;16.88;2.88;;;;;;;;;;5061431;28;20496;-68
2022/01/15 01:24:47;;;;;;;17.92;2.80;;;;;;;;;;5063757;28;20048;-68
2022/01/15 01:27:24;;;;;;;21.38;3.03;;;;;;;;;;5063930;28;20131;-68
2022/01/15 01:30:09;;;;;;;14.30;2.00;;;;;;;;;;5060391;28;20148;-68
2022/01/15 01:32:47;;;;;;;16.23;2.72;;;;;;;;;;5060199;28;20501;-68
2022/01/15 01:35:34;;;;;;;13.48;2.67;;;;;;;;;;5061268;28;20068;-68
2022/01/15 01:38:11;;;;;;;21.75;3.50;;;;;;;;;;5044455;28;20488;-68
2022/01/15 01:40:48;;;;;;;18.75;2.85;;;;;;;;;;5061824;28;20143;-67
2022/01/15 01:43:40;;;;;;;18.30;3.17;;;;;;;;;;5061661;28;20131;-68
2022/01/15 01:46:31;;;;;;;20.73;3.03;;;;;;;;;;5058253;28;20068;-68
2022/01/15 01:48:59;;;;;;;18.00;3.08;;;;;;;;;;5059591;28;20083;-67
2022/01/15 01:51:31;;;;;;;22.42;3.00;;;;;;;;;;5056331;28;20099;-68
2022/01/15 01:53:58;;;;;;;13.40;3.30;;;;;;;;;;5061453;28;20051;-67
2022/01/15 01:56:25;;;;;;;21.35;3.05;;;;;;;;;;5061713;28;20132;-68
2022/01/15 01:58:52;;;;;;;18.92;2.05;;;;;;;;;;5063553;28;20128;-67
2022/01/15 02:01:18;;;;;;;25.30;3.58;;;;;;;;;;5063086;28;20083;-67
2022/01/15 02:03:45;;;;;;;19.08;3.53;;;;;;;;;;5063238;28;20052;-68
2022/01/15 02:06:13;;;;;;;16.98;2.50;;;;;;;;;;5058627;28;20049;-68
2022/01/15 02:08:39;;;;;;;;;;;;;;;;;;5060744;28;20496;-67
2022/01/15 02:11:06;;;;;;;21.77;3.53;;;;;;;;;;5062953;28;20007;-67
2022/01/15 02:13:36;;;;;;;18.63;2.70;;;;;;;;;;5059755;28;20085;-68
2022/01/15 02:16:03;;;;;;;29.48;3.70;;;;;;;;;;5058046;28;20068;-68
2022/01/15 02:18:37;;;;;;;24.00;3.47;;;;;;;;;;5062650;28;20215;-68
2022/01/15 02:23:44;;;;;;;29.98;3.33;;;;;;;;;;5061982;28;20136;-68
2022/01/15 02:26:10;;;;;;;;;;;;;;;;;;5062395;28;20076;-67
2022/01/15 02:28:38;;;;;;;22.80;2.35;;;;;;;;;;5058919;28;19971;-68
2022/01/15 02:31:06;;;;;;;29.92;3.13;;;;;;;;;;5057057;28;20516;-68
2022/01/15 02:33:33;;;;;;;21.08;3.08;;;;;;;;;;5056982;28;20078;-68
2022/01/15 02:36:02;;;;;;;21.92;3.05;;;;;;;;;;5058322;28;20045;-68
2022/01/15 02:38:28;;;;;;;18.15;2.63;;;;;;;;;;5061287;28;20131;-68
2022/01/15 02:40:54;;;;;;;19.17;2.90;;;;;;;;;;5062851;28;20155;-68
2022/01/15 02:43:27;;;;;;;24.73;5.88;;;;;;;;;;5059772;28;20144;-68
2022/01/15 02:45:56;;;;;;;30.35;7.70;;;;;;;;;;5057465;28;20067;-67
2022/01/15 02:48:27;;;;;;;25.38;5.80;;;;;;;;;;5057615;28;20118;-67
2022/01/15 02:50:54;;;;;;;28.10;5.15;;;;;;;;;;5059568;28;20045;-67
2022/01/15 02:53:21;;;;;;;33.05;5.13;;;;;;;;;;5057018;28;20041;-68
2022/01/15 02:55:49;;;;;;;30.08;4.85;;;;;;;;;;5059905;28;20052;-68
2022/01/15 02:58:16;;;;;;;23.92;4.30;;;;;;;;;;5060442;28;20080;-68
2022/01/15 03:00:46;;;;;;;22.50;3.88;;;;;;;;;;5060306;28;20143;-68
2022/01/15 03:03:12;;;;;;;29.13;5.18;;;;;;;;;;5061422;28;20072;-68
2022/01/15 03:05:39;;;;;;;18.95;3.20;;;;;;;;;;5058408;28;20052;-68
2022/01/15 03:08:12;;;;;;;23.95;3.05;;;;;;;;;;5042053;28;20580;-67
2022/01/15 03:10:38;;;;;;;24.35;3.38;;;;;;;;;;5061111;28;20776;-67
2022/01/15 03:13:13;;;;;;;21.67;3.63;;;;;;;;;;5063771;28;20111;-68
2022/01/15 03:15:40;;;;;;;27.45;3.28;;;;;;;;;;5058225;28;20144;-68
2022/01/15 03:18:07;;;;;;;12.40;2.25;;;;;;;;;;5057909;28;20562;-67
2022/01/15 03:20:33;;;;;;;22.20;3.25;;;;;;;;;;5059422;28;20140;-67
2022/01/15 03:23:06;;;;;;;21.98;3.35;;;;;;;;;;5055588;28;20456;-68
2022/01/15 03:25:32;;;;;;;20.98;2.65;;;;;;;;;;5050051;28;20132;-67
2022/01/15 03:27:59;;;;;;;21.75;2.90;;;;;;;;;;5054513;28;20045;-68
2022/01/15 03:30:26;;;;;;;20.65;3.38;;;;;;;;;;5058853;28;20045;-68
2022/01/15 03:32:52;;;;;;;17.43;2.63;;;;;;;;;;5058883;28;20099;-68
2022/01/15 03:35:19;;;;;;;13.43;2.58;;;;;;;;;;5060673;28;20382;-68
2022/01/15 03:37:48;;;;;;;20.90;2.90;;;;;;;;;;5058854;28;20051;-67
2022/01/15 03:40:15;;;;;;;19.73;3.33;;;;;;;;;;5058944;28;20127;-67
2022/01/15 03:42:42;;;;;;;16.73;3.67;;;;;;;;;;5057009;28;20135;-67
2022/01/15 03:45:09;;;;;;;20.83;2.95;;;;;;;;;;5057081;28;20091;-68
2022/01/15 03:47:36;;;;;;;13.02;2.25;;;;;;;;;;5046680;28;20077;-68
2022/01/15 03:50:03;;;;;;;21.90;3.03;;;;;;;;;;5059406;28;20136;-68
2022/01/15 03:52:29;;;;;;;31.98;3.55;;;;;;;;;;5060852;28;20127;-68
2022/01/15 03:54:56;;;;;;;19.42;3.13;;;;;;;;;;5059075;28;20077;-67
2022/01/15 03:57:22;;;;;;;24.10;4.28;;;;;;;;;;5056377;28;20450;-68
2022/01/15 03:59:49;;;;;;;18.37;5.07;;;;;;;;;;5059717;28;20158;-67
2022/01/15 04:02:15;;;;;;;30.60;3.53;;;;;;;;;;5057728;28;20143;-67
2022/01/15 04:04:42;;;;;;;17.15;2.88;;;;;;;;;;5059892;28;20122;-68
2022/01/15 04:07:15;;;;;;;26.10;3.10;;;;;;;;;;5058407;28;20132;-68
2022/01/15 04:09:41;;;;;;;29.10;3.55;;;;;;;;;;5053862;28;20131;-67
2022/01/15 04:12:08;;;;;;;30.85;3.80;;;;;;;;;;5060795;28;20095;-67
2022/01/15 04:14:41;;;;;;;19.90;3.67;;;;;;;;;;5059569;28;20136;-68
2022/01/15 04:17:07;;;;;;;17.27;4.18;;;;;;;;;;5057718;28;20135;-68
2022/01/15 04:19:36;;;;;;;21.60;3.07;;;;;;;;;;5057667;28;20167;-67
2022/01/15 04:22:03;;;;;;;24.27;3.70;;;;;;;;;;5059693;28;20473;-67
2022/01/15 04:24:29;;;;;;;30.33;2.95;;;;;;;;;;5055944;28;20135;-67
2022/01/15 04:26:56;;;;;;;20.83;2.80;;;;;;;;;;5056698;28;20139;-68
2022/01/15 04:29:25;;;;;;;24.83;2.80;;;;;;;;;;5061564;28;20131;-67
2022/01/15 04:31:52;;;;;;;22.30;3.20;;;;;;;;;;5061337;28;20140;-67
2022/01/15 04:34:20;;;;;;;25.30;3.58;;;;;;;;;;5058983;28;20052;-68
2022/01/15 04:36:57;;;;;;;23.15;3.20;;;;;;;;;;5055149;28;20492;-68
2022/01/15 04:39:23;;;;;;;28.30;3.60;;;;;;;;;;5057873;28;20083;-67
2022/01/15 04:41:50;;;;;;;27.30;3.13;;;;;;;;;;5057462;28;20497;-67
2022/01/15 04:44:23;;;;;;;21.92;4.07;;;;;;;;;;5058341;28;20132;-67
2022/01/15 04:46:51;;;;;;;24.55;3.13;;;;;;;;;;5034585;28;20136;-67
2022/01/15 04:49:18;;;;;;;29.25;3.20;;;;;;;;;;5035983;28;20049;-67
2022/01/15 04:51:45;;;;;;;22.52;3.25;;;;;;;;;;5034609;28;20081;-67
2022/01/15 04:54:11;;;;;;;18.48;3.00;;;;;;;;;;5034917;28;20102;-67
2022/01/15 04:56:38;;;;;;;20.33;3.17;;;;;;;;;;5036798;28;20160;-67
2022/01/15 04:59:11;;;;;;;23.27;3.85;;;;;;;;;;5042933;28;20131;-68
2022/01/15 05:01:38;;;;;;;14.70;2.30;;;;;;;;;;5039372;28;20175;-67
2022/01/15 05:04:04;;;;;;;14.93;2.55;;;;;;;;;;5038533;28;20493;-67
2022/01/15 05:06:34;;;;;;;20.13;3.30;;;;;;;;;;5039721;28;20055;-67
2022/01/15 05:09:05;;;;;;;26.23;3.58;;;;;;;;;;5035775;28;20614;-67
2022/01/15 05:11:44;;;;;;;35.90;3.50;;;;;;;;;;5038441;28;20085;-67
2022/01/15 05:14:18;;;;;;;24.23;3.50;;;;;;;;;;5036765;28;20041;-67
2022/01/15 05:16:45;;;;;;;12.35;2.10;;;;;;;;;;5033826;28;20524;-67
2022/01/15 05:19:11;;;;;;;23.10;3.75;;;;;;;;;;5034256;28;20081;-67
2022/01/15 05:21:38;;;;;;;20.80;3.33;;;;;;;;;;5034083;28;20167;-67
2022/01/15 05:24:05;;;;;;;31.83;3.28;;;;;;;;;;5032844;28;20088;-67
2022/01/15 05:26:32;;;;;;;15.60;3.28;;;;;;;;;;5035298;28;20049;-67
2022/01/15 05:29:05;;;;;;;24.80;4.47;;;;;;;;;;5039992;28;20137;-68
2022/01/15 05:31:32;;;;;;;13.13;2.30;;;;;;;;;;5032496;28;20495;-67
2022/01/15 05:33:58;;;;;;;30.80;3.65;;;;;;;;;;5040369;28;20444;-68
2022/01/15 05:36:25;;;;;;;13.37;3.20;;;;;;;;;;5036409;28;20151;-68
2022/01/15 05:38:51;;;;;;;22.67;3.50;;;;;;;;;;5035744;28;20464;-68
2022/01/15 05:41:18;;;;;;;29.52;3.85;;;;;;;;;;5039922;28;20085;-68
2022/01/15 05:43:45;;;;;;;19.00;3.10;;;;;;;;;;5039087;28;20124;-68
2022/01/15 05:46:11;;;;;;;28.52;4.03;;;;;;;;;;5047971;28;20064;-68
2022/01/15 05:48:38;;;;;;;25.70;3.83;;;;;;;;;;5055313;28;20087;-68
2022/01/15 05:51:04;;;;;;;18.63;3.70;;;;;;;;;;5059210;28;20389;-67
2022/01/15 05:53:31;;;;;;;20.25;3.25;;;;;;;;;;5058612;28;20462;-67
2022/01/15 05:55:57;;;;;;;11.35;2.60;;;;;;;;;;5057627;28;20044;-67
2022/01/15 05:58:25;;;;;;;;;;;;;;;;;;5065691;28;20053;-67
2022/01/15 06:00:51;;;;;;;22.80;3.60;;;;;;;;;;5058712;28;19971;-68
2022/01/15 06:03:18;;;;;;;17.33;3.00;;;;;;;;;;5061823;28;20055;-67
2022/01/15 06:05:44;;;;;;;20.47;3.23;;;;;;;;;;5062964;28;20512;-67
2022/01/15 06:08:11;;;;;;;22.80;3.72;;;;;;;;;;5067251;28;20378;-68
2022/01/15 06:10:38;;;;;;;22.55;3.47;;;;;;;;;;5063518;28;20137;-68
2022/01/15 06:13:11;;;;;;;25.30;3.75;;;;;;;;;;5062079;28;20132;-68
2022/01/15 06:15:37;;;;;;;21.27;2.92;;;;;;;;;;5059907;28;20592;-68
2022/01/15 06:18:04;;;;;;;16.83;3.35;;;;;;;;;;5065289;28;20852;-67
2022/01/15 06:20:37;;;;;;;28.40;3.95;;;;;;;;;;5048453;28;20041;-68
2022/01/15 06:23:04;;;;;;;17.95;3.08;;;;;;;;;;5059931;28;20655;-68
2022/01/15 06:25:30;;;;;;;26.83;3.40;;;;;;;;;;5061019;28;20140;-68
2022/01/15 06:27:56;;;;;;;21.47;3.30;;;;;;;;;;5061190;28;20460;-68
2022/01/15 06:30:23;;;;;;;25.25;3.35;;;;;;;;;;5060699;28;20047;-67
2022/01/15 06:32:49;;;;;;;14.60;2.67;;;;;;;;;;5060339;28;20044;-67
2022/01/15 06:35:22;;;;;;;20.65;2.92;;;;;;;;;;5062278;28;20566;-67
2022/01/15 06:37:49;;;;;;;26.67;3.20;;;;;;;;;;5064867;28;20053;-68
2022/01/15 06:40:15;;;;;;;31.17;3.50;;;;;;;;;;5061064;28;20318;-67
2022/01/15 06:42:45;;;;;;;24.63;2.97;;;;;;;;;;5059326;28;20140;-68
2022/01/15 06:45:12;;;;;;;24.48;3.65;;;;;;;;;;5055611;28;20132;-68
2022/01/15 06:47:38;;;;;;;19.27;3.00;;;;;;;;;;5061038;28;20136;-67
2022/01/15 06:50:06;;;;;;;28.48;3.45;;;;;;;;;;5061655;28;20342;-67
2022/01/15 06:52:33;;;;;;;24.55;3.40;;;;;;;;;;5060491;28;20191;-67
2022/01/15 06:54:59;;;;;;;21.55;2.95;;;;;;;;;;5058497;28;20127;-67
2022/01/15 06:57:26;;;;;;;26.90;3.10;;;;;;;;;;5058458;28;20129;-68
2022/01/15 06:59:53;;;;;;;18.25;3.15;;;;;;;;;;5060587;28;20291;-67
2022/01/15 07:02:20;;;;;;;23.05;3.30;;;;;;;;;;5055049;28;20140;-67
2022/01/15 07:04:47;;;;;;;23.95;3.30;;;;;;;;;;5057995;28;20512;-67
2022/01/15 07:07:13;;;;;;;23.90;3.37;;;;;;;;;;5057012;28;20075;-67
2022/01/15 07:09:40;;;;;;;21.73;3.33;;;;;;;;;;5061703;28;20182;-67
2022/01/15 07:12:13;;;;;;;20.73;3.15;;;;;;;;;;5062550;28;20606;-68
2022/01/15 07:14:40;;;;;;;21.63;3.10;;;;;;;;;;5059569;28;20081;-68
2022/01/15 07:17:06;;;;;;;28.83;3.28;;;;;;;;;;5062282;28;20084;-67
2022/01/15 07:19:40;;;;;;;24.70;3.47;;;;;;;;;;5059990;28;20045;-67
2022/01/15 07:22:07;;;;;;;26.60;3.42;;;;;;;;;;5058767;28;20155;-67
2022/01/15 07:24:34;;;;;;;20.38;2.55;;;;;;;;;;5061679;28;20087;-67
2022/01/15 07:27:03;;;;;;;45.53;4.82;;;;;;;;;;5056393;28;20044;-68
2022/01/15 07:29:30;;;;;;;25.77;2.75;;;;;;;;;;5057900;28;20135;-68
2022/01/15 07:31:57;;;;;;;24.58;4.38;;;;;;;;;;5057871;28;20666;-67
2022/01/15 07:34:24;;;;;;;25.40;3.67;;;;;;;;;;5056847;28;20055;-68
2022/01/15 07:36:52;;;;;;;34.40;3.37;;;;;;;;;;5058148;28;20052;-67
2022/01/15 07:39:19;;;;;;;28.58;3.30;;;;;;;;;;5061449;28;20135;-68
2022/01/15 07:41:46;;;;;;;27.25;3.60;;;;;;;;;;5061447;28;20165;-67
2022/01/15 07:44:12;;;;;;;22.05;2.45;;;;;;;;;;5057450;28;20084;-68
2022/01/15 07:46:39;;;;;;;18.80;2.63;;;;;;;;;;5059160;28;20081;-68
2022/01/15 07:49:05;;;;;;;26.40;3.38;;;;;;;;;;5056106;28;20117;-68
2022/01/15 07:51:31;;;;;;;22.88;3.38;;;;;;;;;;5059340;28;20037;-68
2022/01/15 07:53:58;;;;;;;32.95;3.88;;;;;;;;;;5053790;28;20176;-68
2022/01/15 07:56:24;;;;;;;17.63;2.57;;;;;;;;;;5044736;28;20136;-67
2022/01/15 07:58:51;;;;;;;33.40;3.50;;;;;;;;;;5057418;28;20092;-68
2022/01/15 08:01:17;;;;;;;30.50;4.45;;;;;;;;;;5060309;28;20084;-68
2022/01/15 08:03:48;;;;;;;29.08;3.45;;;;;;;;;;5057314;28;20059;-68
2022/01/15 08:06:15;;;;;;;23.13;3.92;;;;;;;;;;5059667;28;20103;-69
2022/01/15 08:08:42;;;;;;;21.98;3.80;;;;;;;;;;5061792;28;20067;-68
2022/01/15 08:11:12;;;;;;;21.63;3.40;;;;;;;;;;5058108;28;20048;-68
2022/01/15 08:13:39;;;;;;;61.78;9.18;;;;;;;;;;5056388;28;20147;-68
2022/01/15 08:16:05;;;;;;;86.22;17.20;;;;;;;;;;5060171;28;20052;-68
2022/01/15 08:18:38;;;;;;;41.30;6.60;;;;;;;;;;5063273;28;20127;-68
2022/01/15 08:21:05;;;;;;;31.02;4.72;;;;;;;;;;5058043;28;20119;-68
2022/01/15 08:23:32;;;;;;;19.95;3.50;;;;;;;;;;5059905;28;20683;-67
2022/01/15 08:25:59;;;;;;;27.02;3.97;;;;;;;;;;5055345;28;20435;-68
2022/01/15 08:28:25;;;;;;;23.13;3.72;;;;;;;;;;5058497;28;20099;-67
2022/01/15 08:30:52;;;;;;;25.55;3.00;;;;;;;;;;5057617;28;20127;-67
2022/01/15 08:33:19;;;;;;;37.15;4.00;;;;;;;;;;5059948;28;20079;-67
2022/01/15 08:35:45;;;;;;;30.57;4.13;;;;;;;;;;5059205;28;20111;-67
2022/01/15 08:38:12;;;;;;;32.50;4.10;;;;;;;;;;5057036;28;20126;-67
2022/01/15 08:40:42;;;;;;;34.63;4.68;;;;;;;;;;5036168;28;20124;-67
2022/01/15 08:43:09;;;;;;;32.63;4.57;;;;;;;;;;5036299;28;20041;-67
2022/01/15 08:45:38;;;;;;;33.03;4.10;;;;;;;;;;5055990;28;20059;-68
2022/01/15 08:48:05;;;;;;;34.38;4.03;;;;;;;;;;5058214;28;20056;-68
2022/01/15 08:50:32;;;;;;;25.20;4.05;;;;;;;;;;5056816;28;20080;-67
2022/01/15 08:52:59;;;;;;;19.48;4.03;;;;;;;;;;5059817;28;20145;-67
2022/01/15 08:55:29;;;;;;;30.73;4.10;;;;;;;;;;5062927;28;20571;-67
2022/01/15 08:58:00;;;;;;;37.38;4.55;;;;;;;;;;5061624;28;20048;-67
2022/01/15 09:00:28;;;;;;;48.55;5.90;;;;;;;;;;5057522;28;20559;-68
2022/01/15 09:02:55;;;;;;;21.35;3.33;;;;;;;;;;5060958;28;20135;-68
2022/01/15 09:05:22;;;;;;;32.83;4.45;;;;;;;;;;5059986;28;20444;-67
2022/01/15 09:07:49;;;;;;;25.75;3.60;;;;;;;;;;5062293;28;20056;-67
2022/01/15 09:10:17;;;;;;;21.27;4.50;;;;;;;;;;5058760;28;20131;-68
2022/01/15 09:12:43;;;;;;;22.55;3.22;;;;;;;;;;5056701;28;20601;-68
2022/01/15 09:15:27;;;;;;;39.83;9.35;;;;;;;;;;5062756;28;20045;-68
2022/01/15 09:17:54;;;;;;;57.70;13.93;;;;;;;;;;5058404;28;20504;-67
2022/01/15 09:20:20;;;;;;;49.30;11.05;;;;;;;;;;5043062;28;20385;-67
2022/01/15 09:22:47;;;;;;;41.27;7.03;;;;;;;;;;5060287;28;20057;-67
2022/01/15 09:25:13;;;;;;;33.08;6.03;;;;;;;;;;5059638;28;20495;-67
2022/01/15 09:30:27;;;;;;;27.35;5.78;;;;;;;;;;5062723;28;20483;-67
2022/01/15 09:32:56;;;;;;;45.13;9.32;;;;;;;;;;5061590;28;20150;-68
2022/01/15 09:35:23;;;;;;;27.45;4.93;;;;;;;;;;5066002;28;20492;-67
2022/01/15 09:37:51;;;;;;;43.28;6.90;;;;;;;;;;5062044;28;20120;-68
2022/01/15 09:40:25;;;;;;;27.88;6.10;;;;;;;;;;5061564;28;20569;-67
2022/01/15 09:42:52;;;;;;;33.85;6.43;;;;;;;;;;5065983;28;20560;-67
2022/01/15 09:45:21;;;;;;;22.65;3.40;;;;;;;;;;5063187;28;20136;-67
2022/01/15 09:47:53;;;;;;;19.77;3.92;;;;;;;;;;5061616;28;20815;-68
2022/01/15 09:50:19;;;;;;;28.35;3.92;;;;;;;;;;5061162;28;20507;-67
2022/01/15 09:52:47;;;;;;;25.05;3.60;;;;;;;;;;5060184;28;20152;-67
2022/01/15 09:55:15;;;;;;;16.90;3.53;;;;;;;;;;5061492;28;20132;-67
2022/01/15 09:57:41;;;;;;;19.92;3.40;;;;;;;;;;5061813;28;20504;-67
2022/01/15 10:00:14;;;;;;;30.60;3.58;;;;;;;;;;5057476;28;20512;-67
2022/01/15 10:02:42;;;;;;;21.52;3.75;;;;;;;;;;5060118;28;20095;-67
2022/01/15 10:05:09;;;;;;;29.73;4.50;;;;;;;;;;5058796;28;20045;-67
2022/01/15 10:07:35;;;;;;;23.30;2.70;;;;;;;;;;5062352;28;20137;-67
2022/01/15 10:10:16;;;;;;;12.05;3.13;;;;;;;;;;5059756;28;20171;-68
2022/01/15 10:12:44;;;;;;;28.42;3.60;;;;;;;;;;5055093;28;20055;-68
2022/01/15 10:15:12;;;;;;;24.70;4.07;;;;;;;;;;5064774;28;20061;-68
2022/01/15 10:17:39;;;;;;;28.65;3.97;;;;;;;;;;5059283;28;20728;-67
2022/01/15 10:20:05;;;;;;;;;;;;;;;;;;5061909;28;20119;-67
2022/01/15 10:22:32;;;;;;;27.38;3.83;;;;;;;;;;5059435;28;19963;-67
2022/01/15 10:25:07;;;;;;;29.92;3.90;;;;;;;;;;5061691;28;20131;-67
2022/01/15 10:27:34;;;;;;;29.88;3.58;;;;;;;;;;5060297;28;20133;-67
2022/01/15 10:30:04;;;;;;;32.53;3.88;;;;;;;;;;5057181;28;20408;-67
2022/01/15 10:32:31;;;;;;;19.90;3.28;;;;;;;;;;5057835;28;20091;-68
2022/01/15 10:34:57;;;;;;;;;;;;;;;;;;5057989;28;20059;-67
2022/01/15 10:37:25;;;;;;;23.33;3.60;;;;;;;;;;5060017;28;20043;-67
2022/01/15 10:39:56;;;;;;;29.92;7.95;;;;;;;;;;5058311;28;20092;-68
2022/01/15 10:42:24;;;;;;;28.00;7.63;;;;;;;;;;5058836;28;20130;-68
2022/01/15 10:44:51;;;;;;;23.20;6.70;;;;;;;;;;5063833;28;20083;-68
2022/01/15 10:47:17;;;;;;;;;;;;;;;;;;5059292;28;20148;-67
2022/01/15 10:49:44;;;;;;;43.33;9.23;;;;;;;;;;5048134;28;20004;-67
2022/01/15 10:52:14;;;;;;;33.03;8.18;;;;;;;;;;5058420;28;20064;-67
2022/01/15 10:54:51;;;;;;;28.80;4.88;;;;;;;;;;5057794;28;20052;-68
2022/01/15 10:57:19;;;;;;;23.10;4.05;;;;;;;;;;5060313;28;20139;-67
2022/01/15 11:00:15;;;;;;;29.35;5.30;;;;;;;;;;5058745;28;20076;-68
2022/01/15 11:02:43;;;;;;;25.83;4.95;;;;;;;;;;5030083;28;20045;-68
2022/01/15 11:05:21;;;;;;;28.67;7.35;;;;;;;;;;5059415;28;20136;-67
2022/01/15 11:07:47;;;;;;;36.05;7.93;;;;;;;;;;5060076;28;20172;-68
2022/01/15 11:10:14;;;;;;;42.42;9.10;;;;;;;;;;5058902;28;20057;-67
2022/01/15 11:12:40;;;;;;;44.72;9.27;;;;;;;;;;5058327;28;20123;-67
2022/01/15 11:15:07;;;;;;;31.60;8.10;;;;;;;;;;5064817;28;20094;-67
2022/01/15 11:17:34;;;;;;;28.15;5.82;;;;;;;;;;5062116;28;20072;-67
2022/01/15 11:20:05;;;;;;;24.05;5.35;;;;;;;;;;5062148;28;20526;-68
2022/01/15 11:22:39;;;;;;;28.30;4.38;;;;;;;;;;5061840;28;20140;-67
2022/01/15 11:25:06;;;;;;;38.15;5.28;;;;;;;;;;5059966;28;20084;-67
2022/01/15 11:27:34;;;;;;;29.65;5.57;;;;;;;;;;5054272;28;20136;-67
2022/01/15 11:30:01;;;;;;;19.02;4.05;;;;;;;;;;5058896;28;20132;-67
2022/01/15 11:32:27;;;;;;;34.17;4.97;;;;;;;;;;5058653;28;20954;-67
2022/01/15 11:35:05;;;;;;;29.63;4.37;;;;;;;;;;5059057;28;20060;-67
2022/01/15 11:37:42;;;;;;;31.40;4.30;;;;;;;;;;5056774;28;20040;-67
2022/01/15 11:40:24;;;;;;;28.00;4.47;;;;;;;;;;5054751;28;20564;-67
2022/01/15 11:42:51;;;;;;;27.13;4.50;;;;;;;;;;5055168;28;20080;-67
2022/01/15 11:45:36;;;;;;;25.75;4.32;;;;;;;;;;5057779;28;20052;-67
2022/01/15 11:48:21;;;;;;;27.70;4.47;;;;;;;;;;5059019;28;20053;-67
2022/01/15 11:51:07;;;;;;;32.17;4.90;;;;;;;;;;5058244;28;20128;-67
2022/01/15 11:53:49;;;;;;;30.77;5.32;;;;;;;;;;5057234;28;20053;-67
2022/01/15 11:56:16;;;;;;;28.52;5.25;;;;;;;;;;5061381;28;20417;-67
2022/01/15 11:58:42;;;;;;;26.52;4.68;;;;;;;;;;5061080;28;20132;-67
2022/01/15 12:01:27;;;;;;;27.15;4.97;;;;;;;;;;5056471;28;20095;-67
2022/01/15 12:04:19;;;;;;;27.90;4.78;;;;;;;;;;5037023;28;20080;-67
2022/01/15 12:07:12;;;;;;;19.52;3.80;;;;;;;;;;5062000;28;20127;-68
2022/01/15 12:09:42;;;;;;;56.90;16.08;;;;;;;;;;5056546;28;20160;-67
2022/01/15 12:12:08;;;;;;;;;;;;;;;;;;5057613;28;20131;-67
2022/01/15 12:14:57;;;;;;;32.33;4.95;;;;;;;;;;5058963;28;20043;-67
2022/01/15 12:17:31;;;;;;;29.05;5.50;;;;;;;;;;5058410;28;20741;-67
2022/01/15 12:19:59;;;;;;;21.88;4.90;;;;;;;;;;5058868;28;20080;-67
2022/01/15 12:22:34;;;;;;;27.98;4.90;;;;;;;;;;5056051;28;20130;-67
2022/01/15 12:25:05;;;;;;;32.22;5.25;;;;;;;;;;5057466;28;20087;-67
2022/01/15 12:27:32;;;;;;;29.60;7.30;;;;;;;;;;5058069;28;20098;-67
2022/01/15 12:30:00;;;;;;;41.53;10.95;;;;;;;;;;5059599;28;20083;-67
2022/01/15 12:32:28;;;;;;;24.13;4.40;;;;;;;;;;5060780;28;20091;-67
2022/01/15 12:34:55;;;;;;;35.95;5.35;;;;;;;;;;5058023;28;20586;-67
2022/01/15 12:37:21;;;;;;;32.55;5.22;;;;;;;;;;5055507;28;20561;-67
2022/01/15 12:39:49;;;;;;;37.97;5.97;;;;;;;;;;5054626;28;20132;-67
2022/01/15 12:42:17;;;;;;;;;;;;;;;;;;5054166;28;20076;-67
2022/01/15 12:44:45;;;;;;;34.87;5.80;;;;;;;;;;5060672;28;20376;-67
2022/01/15 12:47:12;;;;;;;23.70;5.38;;;;;;;;;;5056767;28;20135;-67
2022/01/15 12:49:40;;;;;;;39.22;4.78;;;;;;;;;;5055780;28;20069;-67
2022/01/15 12:52:07;;;;;;;39.38;5.78;;;;;;;;;;5061304;28;20460;-67
2022/01/15 12:54:36;;;;;;;39.47;5.82;;;;;;;;;;5042045;28;20049;-67
2022/01/15 12:57:03;;;;;;;22.15;5.07;;;;;;;;;;5062622;28;20083;-67
2022/01/15 12:59:29;;;;;;;23.75;5.03;;;;;;;;;;5055399;28;20132;-67
2022/01/15 13:01:56;;;;;;;36.20;5.50;;;;;;;;;;5057019;28;20465;-67
2022/01/15 13:04:23;;;;;;;34.25;5.50;;;;;;;;;;5055142;28;20052;-67
2022/01/15 13:06:56;;;;;;;33.40;5.75;;;;;;;;;;5053502;28;20126;-67
2022/01/15 13:09:23;;;;;;;34.70;5.45;;;;;;;;;;5058930;28;20567;-67
2022/01/15 13:11:56;;;;;;;34.55;5.78;;;;;;;;;;5054532;28;20134;-67
2022/01/15 13:14:23;;;;;;;36.35;6.05;;;;;;;;;;5057547;28;20155;-67
2022/01/15 13:16:49;;;;;;;25.40;5.60;;;;;;;;;;5056025;28;20131;-67
2022/01/15 13:19:16;;;;;;;31.45;5.82;;;;;;;;;;5060013;28;20792;-67
2022/01/15 13:21:42;;;;;;;44.63;6.47;;;;;;;;;;5056599;28;20827;-67
2022/01/15 13:24:11;;;;;;;39.42;6.32;;;;;;;;;;5061238;28;20140;-67
2022/01/15 13:26:42;;;;;;;41.70;7.00;;;;;;;;;;5057050;28;20048;-67
2022/01/15 13:29:14;;;;;;;49.42;11.68;;;;;;;;;;5059670;28;20139;-67
2022/01/15 13:31:41;;;;;;;60.55;20.48;;;;;;;;;;5061623;28;20531;-67
2022/01/15 13:34:15;;;;;;;90.82;29.75;;;;;;;;;;5063026;28;20119;-67
2022/01/15 13:36:44;;;;;;;63.70;17.77;;;;;;;;;;5060072;28;20139;-67
2022/01/15 13:39:11;;;;;;;37.67;7.32;;;;;;;;;;5057824;28;20076;-67
2022/01/15 13:41:39;;;;;;;42.80;7.28;;;;;;;;;;5057653;28;20132;-67
2022/01/15 13:44:07;;;;;;;46.35;7.13;;;;;;;;;;5056232;28;20127;-67
2022/01/15 13:46:42;;;;;;;39.08;6.63;;;;;;;;;;5060092;28;20065;-67
2022/01/15 13:49:11;;;;;;;26.85;5.40;;;;;;;;;;5056660;28;20091;-67
2022/01/15 13:54:33;;;;;;;35.75;6.28;;;;;;;;;;5058050;28;20124;-67
2022/01/15 13:57:03;;;;;;;44.80;6.65;;;;;;;;;;5060584;28;20119;-67
2022/01/15 13:59:30;;;;;;;42.70;6.22;;;;;;;;;;5058033;28;20144;-67
2022/01/15 14:01:57;;;;;;;46.70;6.45;;;;;;;;;;5056675;28;20156;-67
2022/01/15 14:04:29;;;;;;;36.15;6.40;;;;;;;;;;5055010;28;20045;-67
2022/01/15 14:06:57;;;;;;;40.22;6.75;;;;;;;;;;5053624;28;20171;-67
2022/01/15 14:09:25;;;;;;;40.67;6.95;;;;;;;;;;5041164;28;21277;-67
2022/01/15 14:12:03;;;;;;;29.10;5.90;;;;;;;;;;5044154;28;20053;-67
2022/01/15 14:14:39;;;;;;;37.53;6.75;;;;;;;;;;5040992;28;20052;-67
2022/01/15 14:17:05;;;;;;;42.08;6.18;;;;;;;;;;5045668;28;20040;-67
2022/01/15 14:20:15;;;;;;;40.38;6.88;;;;;;;;;;5044582;28;20059;-67
2022/01/15 14:22:30;;;;;;;40.40;6.78;;;;;;;;;;5055408;28;20762;-67
2022/01/15 14:25:13;;;;;;;44.13;7.90;;;;;;;;;;5043661;28;20140;-67
2022/01/15 14:28:00;;;;;;;29.67;6.47;;;;;;;;;;5047976;28;20464;-67
2022/01/15 14:30:27;;;;;;;49.38;6.88;;;;;;;;;;5049216;28;20135;-67
2022/01/15 14:33:01;;;;;;;56.80;7.45;;;;;;;;;;5043613;28;20404;-67
2022/01/15 14:35:30;;;;;;;40.97;8.40;;;;;;;;;;5045872;28;20079;-67
2022/01/15 14:37:57;;;;;;;48.22;7.65;;;;;;;;;;5047861;28;20044;-67
2022/01/15 14:40:30;;;;;;;41.13;8.43;;;;;;;;;;5043701;28;20175;-67
2022/01/15 14:42:57;;;;;;;45.25;9.48;;;;;;;;;;5044900;28;20080;-67
2022/01/15 14:45:23;;;;;;;64.47;8.93;;;;;;;;;;5046960;28;20063;-67
2022/01/15 14:47:56;;;;;;;46.80;7.57;;;;;;;;;;5031427;28;20445;-67
2022/01/15 14:50:22;;;;;;;32.43;7.57;;;;;;;;;;5034385;28;20139;-67
2022/01/15 14:52:49;;;;;;;43.83;9.47;;;;;;;;;;5042987;28;20308;-67
2022/01/15 14:55:15;;;;;;;49.05;7.80;;;;;;;;;;5040048;28;20045;-67
2022/01/15 14:57:42;;;;;;;43.83;8.27;;;;;;;;;;5032872;28;20512;-67
2022/01/15 15:00:09;;;;;;;56.13;12.52;;;;;;;;;;5024634;28;20390;-67
2022/01/15 15:02:38;;;;;;;74.05;18.88;;;;;;;;;;5024954;28;20412;-67